Milburn, Kentucky
Current Conditions -  °F | °C
As of 1:15 PM on Monday 20 Oct 2014 (Local Time) from KM25 Reporting Station
Scattered Clouds Scattered Clouds  
Wind Chill: 66°   Ceiling: Unl
Heat Index: 66°   Visibility: 10mi
Dew Point: 52°   Wind: 13mph
Humidity: 60%   Direction: 240°WSW
Pressure: 30.01"   Gusts: 17mph
Location:  36.8°N, 88.9°W
Report Text: KM25 201815Z AUTO 24011G15KT 10SM SCT080 19/11 A3001 RMK AO2
Loading
Personal Weather Stations






























Interactive Weather Map
Tropical Storm Tracking
New forecast layout! Learn more

10-Day Weather Forecast

Advertisements
Track Severe Weather on mobile